sensor_id;sensor_type;location;lat;lon;timestamp;temperature;humidity
26641;DHT22;14269;47.358;0.724;2023-07-24T00:01:18;20.0;68.0
26641;DHT22;14269;47.358;0.724;2023-07-24T00:03:50;20.0;69.0
26641;DHT22;14269;47.358;0.724;2023-07-24T00:06:21;20.0;69.0
26641;DHT22;14269;47.358;0.724;2023-07-24T00:08:53;20.0;69.0
26641;DHT22;14269;47.358;0.724;2023-07-24T00:11:25;20.0;69.0
26641;DHT22;14269;47.358;0.724;2023-07-24T00:13:57;20.0;69.0
26641;DHT22;14269;47.358;0.724;2023-07-24T00:16:28;20.0;69.0
26641;DHT22;14269;47.358;0.724;2023-07-24T00:19:00;20.0;69.0
26641;DHT22;14269;47.358;0.724;2023-07-24T00:21:31;20.0;70.0
26641;DHT22;14269;47.358;0.724;2023-07-24T00:24:04;20.0;70.0
26641;DHT22;14269;47.358;0.724;2023-07-24T00:26:35;20.0;70.0
26641;DHT22;14269;47.358;0.724;2023-07-24T00:29:06;20.0;70.0
26641;DHT22;14269;47.358;0.724;2023-07-24T00:31:38;20.0;70.0
26641;DHT22;14269;47.358;0.724;2023-07-24T00:34:10;20.0;70.0
26641;DHT22;14269;47.358;0.724;2023-07-24T00:36:41;20.0;70.0
26641;DHT22;14269;47.358;0.724;2023-07-24T00:39:14;20.0;70.0
26641;DHT22;14269;47.358;0.724;2023-07-24T00:41:55;20.0;71.0
26641;DHT22;14269;47.358;0.724;2023-07-24T00:44:26;20.0;71.0
26641;DHT22;14269;47.358;0.724;2023-07-24T00:46:58;20.0;70.0
26641;DHT22;14269;47.358;0.724;2023-07-24T00:49:30;20.0;71.0
26641;DHT22;14269;47.358;0.724;2023-07-24T00:52:01;20.0;71.0
26641;DHT22;14269;47.358;0.724;2023-07-24T00:54:33;20.0;70.0
26641;DHT22;14269;47.358;0.724;2023-07-24T00:57:05;20.0;70.0
26641;DHT22;14269;47.358;0.724;2023-07-24T00:59:46;20.0;71.0
26641;DHT22;14269;47.358;0.724;2023-07-24T01:02:18;20.0;71.0
26641;DHT22;14269;47.358;0.724;2023-07-24T01:04:50;20.0;71.0
26641;DHT22;14269;47.358;0.724;2023-07-24T01:07:21;20.0;72.0
26641;DHT22;14269;47.358;0.724;2023-07-24T01:09:53;20.0;71.0
26641;DHT22;14269;47.358;0.724;2023-07-24T01:12:31;20.0;71.0
26641;DHT22;14269;47.358;0.724;2023-07-24T01:15:11;20.0;72.0
26641;DHT22;14269;47.358;0.724;2023-07-24T01:17:52;20.0;72.0
26641;DHT22;14269;47.358;0.724;2023-07-24T01:20:31;20.0;72.0
26641;DHT22;14269;47.358;0.724;2023-07-24T01:23:26;20.0;72.0
26641;DHT22;14269;47.358;0.724;2023-07-24T01:26:03;20.0;72.0
26641;DHT22;14269;47.358;0.724;2023-07-24T01:28:35;20.0;72.0
26641;DHT22;14269;47.358;0.724;2023-07-24T01:31:07;20.0;72.0
26641;DHT22;14269;47.358;0.724;2023-07-24T01:33:39;20.0;73.0
26641;DHT22;14269;47.358;0.724;2023-07-24T01:36:11;20.0;74.0
26641;DHT22;14269;47.358;0.724;2023-07-24T01:38:52;20.0;74.0
26641;DHT22;14269;47.358;0.724;2023-07-24T01:41:24;20.0;75.0
26641;DHT22;14269;47.358;0.724;2023-07-24T01:43:55;20.0;76.0
26641;DHT22;14269;47.358;0.724;2023-07-24T01:46:37;20.0;77.0
26641;DHT22;14269;47.358;0.724;2023-07-24T01:49:08;20.0;78.0
26641;DHT22;14269;47.358;0.724;2023-07-24T01:51:40;20.0;78.0
26641;DHT22;14269;47.358;0.724;2023-07-24T01:54:12;19.0;78.0
26641;DHT22;14269;47.358;0.724;2023-07-24T01:56:43;20.0;79.0
26641;DHT22;14269;47.358;0.724;2023-07-24T01:59:15;19.0;79.0
26641;DHT22;14269;47.358;0.724;2023-07-24T02:01:47;20.0;79.0
26641;DHT22;14269;47.358;0.724;2023-07-24T02:04:22;20.0;78.0
26641;DHT22;14269;47.358;0.724;2023-07-24T02:07:00;20.0;78.0
26641;DHT22;14269;47.358;0.724;2023-07-24T02:09:32;20.0;78.0
26641;DHT22;14269;47.358;0.724;2023-07-24T02:12:05;20.0;78.0
26641;DHT22;14269;47.358;0.724;2023-07-24T02:14:49;20.0;78.0
26641;DHT22;14269;47.358;0.724;2023-07-24T02:17:27;20.0;78.0
26641;DHT22;14269;47.358;0.724;2023-07-24T02:19:59;20.0;78.0
26641;DHT22;14269;47.358;0.724;2023-07-24T02:22:30;20.0;79.0
26641;DHT22;14269;47.358;0.724;2023-07-24T02:25:02;19.0;81.0
26641;DHT22;14269;47.358;0.724;2023-07-24T02:27:34;19.0;82.0
26641;DHT22;14269;47.358;0.724;2023-07-24T02:30:06;19.0;82.0
26641;DHT22;14269;47.358;0.724;2023-07-24T02:32:47;19.0;83.0
26641;DHT22;14269;47.358;0.724;2023-07-24T02:35:19;19.0;83.0
26641;DHT22;14269;47.358;0.724;2023-07-24T02:37:50;19.0;84.0
26641;DHT22;14269;47.358;0.724;2023-07-24T02:40:22;19.0;83.0
26641;DHT22;14269;47.358;0.724;2023-07-24T02:42:53;20.0;82.0
26641;DHT22;14269;47.358;0.724;2023-07-24T02:45:25;20.0;79.0
26641;DHT22;14269;47.358;0.724;2023-07-24T02:47:57;20.0;78.0
26641;DHT22;14269;47.358;0.724;2023-07-24T02:50:28;20.0;79.0
26641;DHT22;14269;47.358;0.724;2023-07-24T02:53:00;20.0;79.0
26641;DHT22;14269;47.358;0.724;2023-07-24T02:55:32;20.0;77.0
26641;DHT22;14269;47.358;0.724;2023-07-24T02:58:03;20.0;77.0
26641;DHT22;14269;47.358;0.724;2023-07-24T03:00:35;20.0;79.0
26641;DHT22;14269;47.358;0.724;2023-07-24T03:03:07;20.0;76.0
26641;DHT22;14269;47.358;0.724;2023-07-24T03:05:38;21.0;75.0
26641;DHT22;14269;47.358;0.724;2023-07-24T03:08:10;20.0;76.0
26641;DHT22;14269;47.358;0.724;2023-07-24T03:10:42;21.0;75.0
26641;DHT22;14269;47.358;0.724;2023-07-24T03:13:13;21.0;74.0
26641;DHT22;14269;47.358;0.724;2023-07-24T03:15:51;21.0;74.0
26641;DHT22;14269;47.358;0.724;2023-07-24T03:18:27;21.0;73.0
26641;DHT22;14269;47.358;0.724;2023-07-24T03:20:58;21.0;72.0
26641;DHT22;14269;47.358;0.724;2023-07-24T03:23:30;21.0;72.0
26641;DHT22;14269;47.358;0.724;2023-07-24T03:26:02;21.0;72.0
26641;DHT22;14269;47.358;0.724;2023-07-24T03:28:33;21.0;72.0
26641;DHT22;14269;47.358;0.724;2023-07-24T03:31:05;21.0;72.0
26641;DHT22;14269;47.358;0.724;2023-07-24T03:33:37;20.0;73.0
26641;DHT22;14269;47.358;0.724;2023-07-24T03:36:08;21.0;72.0
26641;DHT22;14269;47.358;0.724;2023-07-24T03:38:40;21.0;72.0
26641;DHT22;14269;47.358;0.724;2023-07-24T03:41:11;21.0;72.0
26641;DHT22;14269;47.358;0.724;2023-07-24T03:43:43;21.0;73.0
26641;DHT22;14269;47.358;0.724;2023-07-24T03:46:15;21.0;72.0
26641;DHT22;14269;47.358;0.724;2023-07-24T03:48:48;20.0;72.0
26641;DHT22;14269;47.358;0.724;2023-07-24T03:51:28;20.0;73.0
26641;DHT22;14269;47.358;0.724;2023-07-24T03:54:00;20.0;73.0
26641;DHT22;14269;47.358;0.724;2023-07-24T03:56:31;20.0;73.0
26641;DHT22;14269;47.358;0.724;2023-07-24T03:59:03;20.0;74.0
26641;DHT22;14269;47.358;0.724;2023-07-24T04:01:35;20.0;75.0
26641;DHT22;14269;47.358;0.724;2023-07-24T04:04:06;20.0;76.0
26641;DHT22;14269;47.358;0.724;2023-07-24T04:06:38;19.0;76.0
26641;DHT22;14269;47.358;0.724;2023-07-24T04:09:14;19.0;78.0
26641;DHT22;14269;47.358;0.724;2023-07-24T04:11:51;19.0;78.0
26641;DHT22;14269;47.358;0.724;2023-07-24T04:14:23;19.0;78.0
26641;DHT22;14269;47.358;0.724;2023-07-24T04:16:55;20.0;77.0
26641;DHT22;14269;47.358;0.724;2023-07-24T04:19:27;20.0;76.0
26641;DHT22;14269;47.358;0.724;2023-07-24T04:21:58;20.0;75.0
26641;DHT22;14269;47.358;0.724;2023-07-24T04:24:30;20.0;75.0
26641;DHT22;14269;47.358;0.724;2023-07-24T04:27:01;19.0;76.0
26641;DHT22;14269;47.358;0.724;2023-07-24T04:29:33;20.0;75.0
26641;DHT22;14269;47.358;0.724;2023-07-24T04:32:05;19.0;76.0
26641;DHT22;14269;47.358;0.724;2023-07-24T04:34:37;19.0;76.0
26641;DHT22;14269;47.358;0.724;2023-07-24T04:37:08;19.0;76.0
26641;DHT22;14269;47.358;0.724;2023-07-24T04:39:40;19.0;77.0
26641;DHT22;14269;47.358;0.724;2023-07-24T04:42:11;20.0;75.0
26641;DHT22;14269;47.358;0.724;2023-07-24T04:44:43;19.0;76.0
26641;DHT22;14269;47.358;0.724;2023-07-24T04:47:14;19.0;76.0
26641;DHT22;14269;47.358;0.724;2023-07-24T04:49:46;19.0;75.0
26641;DHT22;14269;47.358;0.724;2023-07-24T04:52:18;20.0;75.0
26641;DHT22;14269;47.358;0.724;2023-07-24T04:54:49;19.0;76.0
26641;DHT22;14269;47.358;0.724;2023-07-24T04:57:21;19.0;76.0
26641;DHT22;14269;47.358;0.724;2023-07-24T04:59:53;19.0;76.0
26641;DHT22;14269;47.358;0.724;2023-07-24T05:02:24;19.0;76.0
26641;DHT22;14269;47.358;0.724;2023-07-24T05:04:56;19.0;76.0
26641;DHT22;14269;47.358;0.724;2023-07-24T05:07:28;19.0;76.0
26641;DHT22;14269;47.358;0.724;2023-07-24T05:09:59;19.0;76.0
26641;DHT22;14269;47.358;0.724;2023-07-24T05:12:31;19.0;76.0
26641;DHT22;14269;47.358;0.724;2023-07-24T05:15:03;19.0;76.0
26641;DHT22;14269;47.358;0.724;2023-07-24T05:17:34;19.0;76.0
26641;DHT22;14269;47.358;0.724;2023-07-24T05:20:08;19.0;77.0
26641;DHT22;14269;47.358;0.724;2023-07-24T05:22:48;19.0;77.0
26641;DHT22;14269;47.358;0.724;2023-07-24T05:25:19;19.0;77.0
26641;DHT22;14269;47.358;0.724;2023-07-24T05:27:51;19.0;76.0
26641;DHT22;14269;47.358;0.724;2023-07-24T05:30:23;19.0;77.0
26641;DHT22;14269;47.358;0.724;2023-07-24T05:32:54;19.0;77.0
26641;DHT22;14269;47.358;0.724;2023-07-24T05:35:26;20.0;77.0
26641;DHT22;14269;47.358;0.724;2023-07-24T05:37:58;20.0;77.0
26641;DHT22;14269;47.358;0.724;2023-07-24T05:40:29;20.0;76.0
26641;DHT22;14269;47.358;0.724;2023-07-24T05:43:01;20.0;76.0
26641;DHT22;14269;47.358;0.724;2023-07-24T05:45:32;20.0;76.0
26641;DHT22;14269;47.358;0.724;2023-07-24T05:48:04;19.0;76.0
26641;DHT22;14269;47.358;0.724;2023-07-24T05:50:36;19.0;77.0
26641;DHT22;14269;47.358;0.724;2023-07-24T05:53:07;19.0;78.0
26641;DHT22;14269;47.358;0.724;2023-07-24T05:55:39;19.0;77.0
26641;DHT22;14269;47.358;0.724;2023-07-24T05:58:11;19.0;77.0
26641;DHT22;14269;47.358;0.724;2023-07-24T06:00:42;19.0;78.0
26641;DHT22;14269;47.358;0.724;2023-07-24T06:03:14;19.0;78.0
26641;DHT22;14269;47.358;0.724;2023-07-24T06:05:46;19.0;78.0
26641;DHT22;14269;47.358;0.724;2023-07-24T06:08:17;19.0;78.0
26641;DHT22;14269;47.358;0.724;2023-07-24T06:10:50;19.0;77.0
26641;DHT22;14269;47.358;0.724;2023-07-24T06:13:31;19.0;77.0
26641;DHT22;14269;47.358;0.724;2023-07-24T06:16:03;19.0;78.0
26641;DHT22;14269;47.358;0.724;2023-07-24T06:18:34;19.0;77.0
26641;DHT22;14269;47.358;0.724;2023-07-24T06:21:06;20.0;77.0
26641;DHT22;14269;47.358;0.724;2023-07-24T06:23:37;20.0;75.0
26641;DHT22;14269;47.358;0.724;2023-07-24T06:26:09;20.0;75.0
26641;DHT22;14269;47.358;0.724;2023-07-24T06:28:41;20.0;75.0
26641;DHT22;14269;47.358;0.724;2023-07-24T06:31:12;20.0;75.0
26641;DHT22;14269;47.358;0.724;2023-07-24T06:33:44;20.0;76.0
26641;DHT22;14269;47.358;0.724;2023-07-24T06:36:15;20.0;76.0
26641;DHT22;14269;47.358;0.724;2023-07-24T06:38:47;20.0;75.0
26641;DHT22;14269;47.358;0.724;2023-07-24T06:41:20;20.0;75.0
26641;DHT22;14269;47.358;0.724;2023-07-24T06:44:01;20.0;76.0
26641;DHT22;14269;47.358;0.724;2023-07-24T06:46:32;20.0;76.0
26641;DHT22;14269;47.358;0.724;2023-07-24T06:49:04;20.0;75.0
26641;DHT22;14269;47.358;0.724;2023-07-24T06:51:36;20.0;75.0
26641;DHT22;14269;47.358;0.724;2023-07-24T06:54:07;20.0;76.0
26641;DHT22;14269;47.358;0.724;2023-07-24T06:56:39;20.0;76.0
26641;DHT22;14269;47.358;0.724;2023-07-24T06:59:10;20.0;75.0
26641;DHT22;14269;47.358;0.724;2023-07-24T07:01:42;20.0;74.0
26641;DHT22;14269;47.358;0.724;2023-07-24T07:04:14;20.0;73.0
26641;DHT22;14269;47.358;0.724;2023-07-24T07:06:45;20.0;73.0
26641;DHT22;14269;47.358;0.724;2023-07-24T07:09:17;21.0;73.0
26641;DHT22;14269;47.358;0.724;2023-07-24T07:11:49;21.0;72.0
26641;DHT22;14269;47.358;0.724;2023-07-24T07:14:20;21.0;71.0
26641;DHT22;14269;47.358;0.724;2023-07-24T07:16:52;20.0;72.0
26641;DHT22;14269;47.358;0.724;2023-07-24T07:19:24;20.0;72.0
26641;DHT22;14269;47.358;0.724;2023-07-24T07:21:55;20.0;72.0
26641;DHT22;14269;47.358;0.724;2023-07-24T07:24:27;20.0;72.0
26641;DHT22;14269;47.358;0.724;2023-07-24T07:26:58;20.0;71.0
26641;DHT22;14269;47.358;0.724;2023-07-24T07:29:31;20.0;69.0
26641;DHT22;14269;47.358;0.724;2023-07-24T07:32:02;20.0;70.0
26641;DHT22;14269;47.358;0.724;2023-07-24T07:34:34;20.0;69.0
26641;DHT22;14269;47.358;0.724;2023-07-24T07:37:15;21.0;69.0
26641;DHT22;14269;47.358;0.724;2023-07-24T07:39:47;21.0;68.0
26641;DHT22;14269;47.358;0.724;2023-07-24T07:42:18;20.0;68.0
26641;DHT22;14269;47.358;0.724;2023-07-24T07:44:50;21.0;67.0
26641;DHT22;14269;47.358;0.724;2023-07-24T07:47:22;21.0;66.0
26641;DHT22;14269;47.358;0.724;2023-07-24T07:49:53;21.0;65.0
26641;DHT22;14269;47.358;0.724;2023-07-24T07:52:25;21.0;65.0
26641;DHT22;14269;47.358;0.724;2023-07-24T07:54:57;21.0;64.0
26641;DHT22;14269;47.358;0.724;2023-07-24T07:57:28;21.0;64.0
26641;DHT22;14269;47.358;0.724;2023-07-24T08:00:00;21.0;65.0
26641;DHT22;14269;47.358;0.724;2023-07-24T08:02:33;21.0;66.0
26641;DHT22;14269;47.358;0.724;2023-07-24T08:05:14;21.0;65.0
26641;DHT22;14269;47.358;0.724;2023-07-24T08:07:55;21.0;64.0
26641;DHT22;14269;47.358;0.724;2023-07-24T08:10:27;22.0;63.0
26641;DHT22;14269;47.358;0.724;2023-07-24T08:12:58;21.0;64.0
26641;DHT22;14269;47.358;0.724;2023-07-24T08:15:34;21.0;65.0
26641;DHT22;14269;47.358;0.724;2023-07-24T08:18:12;21.0;65.0
26641;DHT22;14269;47.358;0.724;2023-07-24T08:20:44;21.0;64.0
26641;DHT22;14269;47.358;0.724;2023-07-24T08:23:15;21.0;63.0
26641;DHT22;14269;47.358;0.724;2023-07-24T08:25:55;21.0;63.0
26641;DHT22;14269;47.358;0.724;2023-07-24T08:28:29;21.0;64.0
26641;DHT22;14269;47.358;0.724;2023-07-24T08:31:02;21.0;64.0
26641;DHT22;14269;47.358;0.724;2023-07-24T08:33:42;21.0;64.0
26641;DHT22;14269;47.358;0.724;2023-07-24T08:36:14;21.0;64.0
26641;DHT22;14269;47.358;0.724;2023-07-24T08:38:47;21.0;65.0
26641;DHT22;14269;47.358;0.724;2023-07-24T08:41:27;21.0;64.0
26641;DHT22;14269;47.358;0.724;2023-07-24T08:43:59;21.0;64.0
26641;DHT22;14269;47.358;0.724;2023-07-24T08:46:31;21.0;63.0
26641;DHT22;14269;47.358;0.724;2023-07-24T08:49:13;22.0;62.0
26641;DHT22;14269;47.358;0.724;2023-07-24T08:51:54;22.0;62.0
26641;DHT22;14269;47.358;0.724;2023-07-24T08:54:26;22.0;62.0
26641;DHT22;14269;47.358;0.724;2023-07-24T08:56:57;21.0;63.0
26641;DHT22;14269;47.358;0.724;2023-07-24T08:59:29;21.0;63.0
26641;DHT22;14269;47.358;0.724;2023-07-24T09:02:01;21.0;63.0
26641;DHT22;14269;47.358;0.724;2023-07-24T09:04:32;21.0;62.0
26641;DHT22;14269;47.358;0.724;2023-07-24T09:07:05;22.0;62.0
26641;DHT22;14269;47.358;0.724;2023-07-24T09:09:48;22.0;61.0
26641;DHT22;14269;47.358;0.724;2023-07-24T09:12:27;21.0;61.0
26641;DHT22;14269;47.358;0.724;2023-07-24T09:15:01;21.0;61.0
26641;DHT22;14269;47.358;0.724;2023-07-24T09:17:49;21.0;62.0
26641;DHT22;14269;47.358;0.724;2023-07-24T09:20:24;21.0;62.0
26641;DHT22;14269;47.358;0.724;2023-07-24T09:23:04;21.0;61.0
26641;DHT22;14269;47.358;0.724;2023-07-24T09:25:38;22.0;59.0
26641;DHT22;14269;47.358;0.724;2023-07-24T09:28:19;22.0;58.0
26641;DHT22;14269;47.358;0.724;2023-07-24T09:31:00;22.0;58.0
26641;DHT22;14269;47.358;0.724;2023-07-24T09:33:43;22.0;57.0
26641;DHT22;14269;47.358;0.724;2023-07-24T09:36:23;22.0;58.0
26641;DHT22;14269;47.358;0.724;2023-07-24T09:39:00;21.0;59.0
26641;DHT22;14269;47.358;0.724;2023-07-24T09:41:36;21.0;59.0
26641;DHT22;14269;47.358;0.724;2023-07-24T09:44:11;22.0;57.0
26641;DHT22;14269;47.358;0.724;2023-07-24T09:46:50;23.0;55.0
26641;DHT22;14269;47.358;0.724;2023-07-24T09:49:21;23.0;54.0
26641;DHT22;14269;47.358;0.724;2023-07-24T09:51:54;23.0;53.0
26641;DHT22;14269;47.358;0.724;2023-07-24T09:54:42;23.0;53.0
26641;DHT22;14269;47.358;0.724;2023-07-24T09:57:17;24.0;53.0
26641;DHT22;14269;47.358;0.724;2023-07-24T09:59:49;23.0;54.0
26641;DHT22;14269;47.358;0.724;2023-07-24T10:02:30;23.0;52.0
26641;DHT22;14269;47.358;0.724;2023-07-24T10:05:02;23.0;53.0
26641;DHT22;14269;47.358;0.724;2023-07-24T10:07:33;22.0;54.0
26641;DHT22;14269;47.358;0.724;2023-07-24T10:10:06;23.0;55.0
26641;DHT22;14269;47.358;0.724;2023-07-24T10:12:47;23.0;54.0
26641;DHT22;14269;47.358;0.724;2023-07-24T10:15:29;23.0;54.0
26641;DHT22;14269;47.358;0.724;2023-07-24T10:18:10;23.0;53.0
26641;DHT22;14269;47.358;0.724;2023-07-24T10:20:42;22.0;53.0
26641;DHT22;14269;47.358;0.724;2023-07-24T10:23:17;22.0;54.0
26641;DHT22;14269;47.358;0.724;2023-07-24T10:25:55;23.0;53.0
26641;DHT22;14269;47.358;0.724;2023-07-24T10:28:31;24.0;53.0
26641;DHT22;14269;47.358;0.724;2023-07-24T10:31:19;24.0;51.0
26641;DHT22;14269;47.358;0.724;2023-07-24T10:34:04;25.0;49.0
26641;DHT22;14269;47.358;0.724;2023-07-24T10:36:42;25.0;49.0
26641;DHT22;14269;47.358;0.724;2023-07-24T10:39:15;24.0;49.0
26641;DHT22;14269;47.358;0.724;2023-07-24T10:42:05;25.0;49.0
26641;DHT22;14269;47.358;0.724;2023-07-24T10:44:37;25.0;48.0
26641;DHT22;14269;47.358;0.724;2023-07-24T10:47:09;25.0;48.0
26641;DHT22;14269;47.358;0.724;2023-07-24T10:49:47;25.0;49.0
26641;DHT22;14269;47.358;0.724;2023-07-24T10:52:27;24.0;49.0
26641;DHT22;14269;47.358;0.724;2023-07-24T10:55:05;24.0;50.0
26641;DHT22;14269;47.358;0.724;2023-07-24T10:57:46;24.0;50.0
26641;DHT22;14269;47.358;0.724;2023-07-24T11:00:18;24.0;50.0
26641;DHT22;14269;47.358;0.724;2023-07-24T11:02:50;24.0;50.0
26641;DHT22;14269;47.358;0.724;2023-07-24T11:05:31;24.0;51.0
26641;DHT22;14269;47.358;0.724;2023-07-24T11:08:15;24.0;49.0
26641;DHT22;14269;47.358;0.724;2023-07-24T11:10:57;25.0;47.0
26641;DHT22;14269;47.358;0.724;2023-07-24T11:13:38;24.0;48.0
26641;DHT22;14269;47.358;0.724;2023-07-24T11:16:18;24.0;48.0
26641;DHT22;14269;47.358;0.724;2023-07-24T11:18:51;24.0;49.0
26641;DHT22;14269;47.358;0.724;2023-07-24T11:21:31;23.0;50.0
26641;DHT22;14269;47.358;0.724;2023-07-24T11:24:07;23.0;51.0
26641;DHT22;14269;47.358;0.724;2023-07-24T11:26:45;23.0;51.0
26641;DHT22;14269;47.358;0.724;2023-07-24T11:29:16;23.0;52.0
26641;DHT22;14269;47.358;0.724;2023-07-24T11:31:53;23.0;52.0
26641;DHT22;14269;47.358;0.724;2023-07-24T11:34:30;23.0;53.0
26641;DHT22;14269;47.358;0.724;2023-07-24T11:37:02;22.0;57.0
26641;DHT22;14269;47.358;0.724;2023-07-24T11:39:33;22.0;60.0
26641;DHT22;14269;47.358;0.724;2023-07-24T11:42:05;22.0;61.0
26641;DHT22;14269;47.358;0.724;2023-07-24T11:44:46;22.0;63.0
26641;DHT22;14269;47.358;0.724;2023-07-24T11:47:18;22.0;64.0
26641;DHT22;14269;47.358;0.724;2023-07-24T11:49:59;21.0;66.0
26641;DHT22;14269;47.358;0.724;2023-07-24T11:52:40;21.0;67.0
26641;DHT22;14269;47.358;0.724;2023-07-24T11:55:31;22.0;67.0
26641;DHT22;14269;47.358;0.724;2023-07-24T11:58:05;22.0;67.0
26641;DHT22;14269;47.358;0.724;2023-07-24T12:00:37;22.0;67.0
26641;DHT22;14269;47.358;0.724;2023-07-24T12:03:09;22.0;67.0
26641;DHT22;14269;47.358;0.724;2023-07-24T12:05:42;22.0;66.0
26641;DHT22;14269;47.358;0.724;2023-07-24T12:08:30;23.0;63.0
26641;DHT22;14269;47.358;0.724;2023-07-24T12:11:04;23.0;59.0
26641;DHT22;14269;47.358;0.724;2023-07-24T12:13:35;23.0;60.0
26641;DHT22;14269;47.358;0.724;2023-07-24T12:16:07;23.0;59.0
26641;DHT22;14269;47.358;0.724;2023-07-24T12:18:39;23.0;59.0
26641;DHT22;14269;47.358;0.724;2023-07-24T12:21:10;23.0;60.0
26641;DHT22;14269;47.358;0.724;2023-07-24T12:23:42;23.0;59.0
26641;DHT22;14269;47.358;0.724;2023-07-24T12:26:14;22.0;60.0
26641;DHT22;14269;47.358;0.724;2023-07-24T12:28:45;23.0;60.0
26641;DHT22;14269;47.358;0.724;2023-07-24T12:31:17;23.0;59.0
26641;DHT22;14269;47.358;0.724;2023-07-24T12:33:48;23.0;59.0
26641;DHT22;14269;47.358;0.724;2023-07-24T12:36:20;23.0;58.0
26641;DHT22;14269;47.358;0.724;2023-07-24T12:38:52;24.0;57.0
26641;DHT22;14269;47.358;0.724;2023-07-24T12:41:23;25.0;55.0
26641;DHT22;14269;47.358;0.724;2023-07-24T12:43:55;24.0;54.0
26641;DHT22;14269;47.358;0.724;2023-07-24T12:46:27;24.0;53.0
26641;DHT22;14269;47.358;0.724;2023-07-24T12:48:58;24.0;53.0
26641;DHT22;14269;47.358;0.724;2023-07-24T12:51:30;24.0;53.0
26641;DHT22;14269;47.358;0.724;2023-07-24T12:54:02;25.0;53.0
26641;DHT22;14269;47.358;0.724;2023-07-24T12:56:33;24.0;54.0
26641;DHT22;14269;47.358;0.724;2023-07-24T12:59:05;25.0;52.0
26641;DHT22;14269;47.358;0.724;2023-07-24T13:01:36;25.0;52.0
26641;DHT22;14269;47.358;0.724;2023-07-24T13:04:08;25.0;51.0
26641;DHT22;14269;47.358;0.724;2023-07-24T13:06:40;24.0;52.0
26641;DHT22;14269;47.358;0.724;2023-07-24T13:09:12;25.0;52.0
26641;DHT22;14269;47.358;0.724;2023-07-24T13:11:43;25.0;52.0
26641;DHT22;14269;47.358;0.724;2023-07-24T13:14:15;25.0;52.0
26641;DHT22;14269;47.358;0.724;2023-07-24T13:16:47;24.0;51.0
26641;DHT22;14269;47.358;0.724;2023-07-24T13:19:18;24.0;51.0
26641;DHT22;14269;47.358;0.724;2023-07-24T13:21:50;25.0;50.0
26641;DHT22;14269;47.358;0.724;2023-07-24T13:24:21;25.0;51.0
26641;DHT22;14269;47.358;0.724;2023-07-24T13:26:53;25.0;51.0
26641;DHT22;14269;47.358;0.724;2023-07-24T13:29:25;25.0;51.0
26641;DHT22;14269;47.358;0.724;2023-07-24T13:31:56;25.0;51.0
26641;DHT22;14269;47.358;0.724;2023-07-24T13:34:28;25.0;50.0
26641;DHT22;14269;47.358;0.724;2023-07-24T13:37:00;25.0;52.0
26641;DHT22;14269;47.358;0.724;2023-07-24T13:39:31;25.0;51.0
26641;DHT22;14269;47.358;0.724;2023-07-24T13:42:13;25.0;51.0
26641;DHT22;14269;47.358;0.724;2023-07-24T13:44:45;25.0;52.0
26641;DHT22;14269;47.358;0.724;2023-07-24T13:47:16;25.0;51.0
26641;DHT22;14269;47.358;0.724;2023-07-24T13:49:48;25.0;50.0
26641;DHT22;14269;47.358;0.724;2023-07-24T13:52:20;25.0;51.0
26641;DHT22;14269;47.358;0.724;2023-07-24T13:54:51;25.0;51.0
26641;DHT22;14269;47.358;0.724;2023-07-24T13:57:23;25.0;50.0
26641;DHT22;14269;47.358;0.724;2023-07-24T13:59:55;26.0;50.0
26641;DHT22;14269;47.358;0.724;2023-07-24T14:02:26;26.0;48.0
26641;DHT22;14269;47.358;0.724;2023-07-24T14:04:58;26.0;48.0
26641;DHT22;14269;47.358;0.724;2023-07-24T14:07:29;26.0;48.0
26641;DHT22;14269;47.358;0.724;2023-07-24T14:10:01;25.0;49.0
26641;DHT22;14269;47.358;0.724;2023-07-24T14:12:33;25.0;50.0
26641;DHT22;14269;47.358;0.724;2023-07-24T14:15:05;25.0;50.0
26641;DHT22;14269;47.358;0.724;2023-07-24T14:17:46;25.0;50.0
26641;DHT22;14269;47.358;0.724;2023-07-24T14:20:19;25.0;52.0
26641;DHT22;14269;47.358;0.724;2023-07-24T14:22:59;25.0;51.0
26641;DHT22;14269;47.358;0.724;2023-07-24T14:25:31;25.0;51.0
26641;DHT22;14269;47.358;0.724;2023-07-24T14:28:03;25.0;50.0
26641;DHT22;14269;47.358;0.724;2023-07-24T14:30:34;25.0;51.0
26641;DHT22;14269;47.358;0.724;2023-07-24T14:33:06;24.0;52.0
26641;DHT22;14269;47.358;0.724;2023-07-24T14:35:38;24.0;51.0
26641;DHT22;14269;47.358;0.724;2023-07-24T14:38:09;24.0;52.0
26641;DHT22;14269;47.358;0.724;2023-07-24T14:40:41;24.0;52.0
26641;DHT22;14269;47.358;0.724;2023-07-24T14:43:13;24.0;52.0
26641;DHT22;14269;47.358;0.724;2023-07-24T14:45:44;24.0;54.0
26641;DHT22;14269;47.358;0.724;2023-07-24T14:48:16;24.0;58.0
26641;DHT22;14269;47.358;0.724;2023-07-24T14:50:48;23.0;61.0
26641;DHT22;14269;47.358;0.724;2023-07-24T14:53:19;23.0;63.0
26641;DHT22;14269;47.358;0.724;2023-07-24T14:55:51;23.0;65.0
26641;DHT22;14269;47.358;0.724;2023-07-24T14:58:23;23.0;64.0
26641;DHT22;14269;47.358;0.724;2023-07-24T15:00:54;23.0;64.0
26641;DHT22;14269;47.358;0.724;2023-07-24T15:03:26;24.0;64.0
26641;DHT22;14269;47.358;0.724;2023-07-24T15:06:03;23.0;64.0
26641;DHT22;14269;47.358;0.724;2023-07-24T15:08:39;23.0;64.0
26641;DHT22;14269;47.358;0.724;2023-07-24T15:11:12;23.0;63.0
26641;DHT22;14269;47.358;0.724;2023-07-24T15:13:53;23.0;62.0
26641;DHT22;14269;47.358;0.724;2023-07-24T15:16:34;23.0;62.0
26641;DHT22;14269;47.358;0.724;2023-07-24T15:19:06;24.0;61.0
26641;DHT22;14269;47.358;0.724;2023-07-24T15:21:38;24.0;60.0
26641;DHT22;14269;47.358;0.724;2023-07-24T15:24:09;25.0;58.0
26641;DHT22;14269;47.358;0.724;2023-07-24T15:26:41;25.0;58.0
26641;DHT22;14269;47.358;0.724;2023-07-24T15:29:14;25.0;56.0
26641;DHT22;14269;47.358;0.724;2023-07-24T15:31:54;25.0;53.0
26641;DHT22;14269;47.358;0.724;2023-07-24T15:34:26;25.0;51.0
26641;DHT22;14269;47.358;0.724;2023-07-24T15:36:58;25.0;51.0
26641;DHT22;14269;47.358;0.724;2023-07-24T15:39:29;24.0;52.0
26641;DHT22;14269;47.358;0.724;2023-07-24T15:42:01;24.0;52.0
26641;DHT22;14269;47.358;0.724;2023-07-24T15:44:33;25.0;53.0
26641;DHT22;14269;47.358;0.724;2023-07-24T15:47:04;25.0;52.0
26641;DHT22;14269;47.358;0.724;2023-07-24T15:49:36;25.0;51.0
26641;DHT22;14269;47.358;0.724;2023-07-24T15:52:08;25.0;52.0
26641;DHT22;14269;47.358;0.724;2023-07-24T15:54:39;24.0;53.0
26641;DHT22;14269;47.358;0.724;2023-07-24T15:57:11;24.0;54.0
26641;DHT22;14269;47.358;0.724;2023-07-24T15:59:43;24.0;54.0
26641;DHT22;14269;47.358;0.724;2023-07-24T16:02:14;24.0;53.0
26641;DHT22;14269;47.358;0.724;2023-07-24T16:04:46;24.0;52.0
26641;DHT22;14269;47.358;0.724;2023-07-24T16:07:18;24.0;52.0
26641;DHT22;14269;47.358;0.724;2023-07-24T16:09:49;24.0;52.0
26641;DHT22;14269;47.358;0.724;2023-07-24T16:12:21;24.0;52.0
26641;DHT22;14269;47.358;0.724;2023-07-24T16:14:52;24.0;53.0
26641;DHT22;14269;47.358;0.724;2023-07-24T16:17:24;24.0;54.0
26641;DHT22;14269;47.358;0.724;2023-07-24T16:19:56;23.0;60.0
26641;DHT22;14269;47.358;0.724;2023-07-24T16:22:28;22.0;65.0
26641;DHT22;14269;47.358;0.724;2023-07-24T16:24:59;22.0;68.0
26641;DHT22;14269;47.358;0.724;2023-07-24T16:27:31;22.0;68.0
26641;DHT22;14269;47.358;0.724;2023-07-24T16:30:03;22.0;69.0
26641;DHT22;14269;47.358;0.724;2023-07-24T16:32:44;22.0;69.0
26641;DHT22;14269;47.358;0.724;2023-07-24T16:35:16;22.0;69.0
26641;DHT22;14269;47.358;0.724;2023-07-24T16:37:47;22.0;69.0
26641;DHT22;14269;47.358;0.724;2023-07-24T16:40:19;23.0;68.0
26641;DHT22;14269;47.358;0.724;2023-07-24T16:42:51;23.0;69.0